sensor_id;sensor_type;location;lat;lon;timestamp;P1;durP1;ratioP1;P2;durP2;ratioP2
23684;SDS011;12020;51.384;6.908;2023-06-10T00:00:37;6.93;;;6.23;;
23684;SDS011;12020;51.384;6.908;2023-06-10T00:03:03;8.30;;;6.40;;
23684;SDS011;12020;51.384;6.908;2023-06-10T00:05:29;7.83;;;6.23;;
23684;SDS011;12020;51.384;6.908;2023-06-10T00:07:56;7.20;;;6.50;;
23684;SDS011;12020;51.384;6.908;2023-06-10T00:10:22;8.23;;;6.57;;
23684;SDS011;12020;51.384;6.908;2023-06-10T00:12:50;7.37;;;6.70;;
23684;SDS011;12020;51.384;6.908;2023-06-10T00:15:16;7.30;;;6.60;;
23684;SDS011;12020;51.384;6.908;2023-06-10T00:17:42;7.77;;;7.07;;
23684;SDS011;12020;51.384;6.908;2023-06-10T00:20:08;6.90;;;6.30;;
23684;SDS011;12020;51.384;6.908;2023-06-10T00:22:36;7.13;;;6.43;;
23684;SDS011;12020;51.384;6.908;2023-06-10T00:25:05;6.80;;;6.03;;
23684;SDS011;12020;51.384;6.908;2023-06-10T00:27:31;7.53;;;6.73;;
23684;SDS011;12020;51.384;6.908;2023-06-10T00:30:00;7.60;;;6.90;;
23684;SDS011;12020;51.384;6.908;2023-06-10T00:32:29;7.27;;;6.57;;
23684;SDS011;12020;51.384;6.908;2023-06-10T00:34:56;7.20;;;6.60;;
23684;SDS011;12020;51.384;6.908;2023-06-10T00:37:22;7.60;;;6.90;;
23684;SDS011;12020;51.384;6.908;2023-06-10T00:39:48;7.10;;;6.50;;
23684;SDS011;12020;51.384;6.908;2023-06-10T00:42:13;9.17;;;7.10;;
23684;SDS011;12020;51.384;6.908;2023-06-10T00:44:39;7.40;;;6.70;;
23684;SDS011;12020;51.384;6.908;2023-06-10T00:47:05;7.17;;;6.57;;
23684;SDS011;12020;51.384;6.908;2023-06-10T00:49:32;8.30;;;7.20;;
23684;SDS011;12020;51.384;6.908;2023-06-10T00:51:58;6.63;;;6.10;;
23684;SDS011;12020;51.384;6.908;2023-06-10T00:54:24;7.47;;;6.77;;
23684;SDS011;12020;51.384;6.908;2023-06-10T00:56:51;7.80;;;7.00;;
23684;SDS011;12020;51.384;6.908;2023-06-10T00:59:17;7.47;;;6.77;;
23684;SDS011;12020;51.384;6.908;2023-06-10T01:01:43;7.37;;;6.67;;
23684;SDS011;12020;51.384;6.908;2023-06-10T01:04:12;7.73;;;6.90;;
23684;SDS011;12020;51.384;6.908;2023-06-10T01:14:51;7.67;;;6.93;;
23684;SDS011;12020;51.384;6.908;2023-06-10T01:17:17;7.60;;;6.93;;
23684;SDS011;12020;51.384;6.908;2023-06-10T01:19:43;8.13;;;7.00;;
23684;SDS011;12020;51.384;6.908;2023-06-10T01:22:09;7.87;;;7.07;;
23684;SDS011;12020;51.384;6.908;2023-06-10T01:24:36;8.00;;;7.20;;
23684;SDS011;12020;51.384;6.908;2023-06-10T01:27:05;8.13;;;7.33;;
23684;SDS011;12020;51.384;6.908;2023-06-10T01:29:41;8.33;;;7.63;;
23684;SDS011;12020;51.384;6.908;2023-06-10T01:32:26;8.23;;;7.43;;
23684;SDS011;12020;51.384;6.908;2023-06-10T01:34:57;8.10;;;7.40;;
23684;SDS011;12020;51.384;6.908;2023-06-10T01:37:24;8.33;;;7.50;;
23684;SDS011;12020;51.384;6.908;2023-06-10T01:39:55;8.57;;;7.80;;
23684;SDS011;12020;51.384;6.908;2023-06-10T01:42:24;8.23;;;7.43;;
23684;SDS011;12020;51.384;6.908;2023-06-10T01:44:50;8.20;;;7.50;;
23684;SDS011;12020;51.384;6.908;2023-06-10T01:47:16;7.57;;;6.93;;
23684;SDS011;12020;51.384;6.908;2023-06-10T01:49:42;8.67;;;7.63;;
23684;SDS011;12020;51.384;6.908;2023-06-10T01:52:08;8.30;;;7.50;;
23684;SDS011;12020;51.384;6.908;2023-06-10T01:54:34;8.43;;;7.67;;
23684;SDS011;12020;51.384;6.908;2023-06-10T01:57:00;8.07;;;7.37;;
23684;SDS011;12020;51.384;6.908;2023-06-10T01:59:26;8.13;;;7.17;;
23684;SDS011;12020;51.384;6.908;2023-06-10T02:01:52;8.77;;;7.93;;
23684;SDS011;12020;51.384;6.908;2023-06-10T02:04:18;9.33;;;8.40;;
23684;SDS011;12020;51.384;6.908;2023-06-10T02:06:43;9.13;;;8.33;;
23684;SDS011;12020;51.384;6.908;2023-06-10T02:09:10;9.63;;;8.77;;
23684;SDS011;12020;51.384;6.908;2023-06-10T02:11:35;9.57;;;8.67;;
23684;SDS011;12020;51.384;6.908;2023-06-10T02:14:01;10.03;;;7.93;;
23684;SDS011;12020;51.384;6.908;2023-06-10T02:16:27;9.30;;;8.60;;
23684;SDS011;12020;51.384;6.908;2023-06-10T02:18:53;9.67;;;8.87;;
23684;SDS011;12020;51.384;6.908;2023-06-10T02:21:19;9.00;;;8.17;;
23684;SDS011;12020;51.384;6.908;2023-06-10T02:23:45;9.27;;;8.37;;
23684;SDS011;12020;51.384;6.908;2023-06-10T02:26:11;9.13;;;8.40;;
23684;SDS011;12020;51.384;6.908;2023-06-10T02:28:36;9.03;;;8.23;;
23684;SDS011;12020;51.384;6.908;2023-06-10T02:31:02;8.97;;;8.17;;
23684;SDS011;12020;51.384;6.908;2023-06-10T02:33:27;9.00;;;8.10;;
23684;SDS011;12020;51.384;6.908;2023-06-10T02:35:53;9.47;;;8.63;;
23684;SDS011;12020;51.384;6.908;2023-06-10T02:38:20;9.73;;;8.73;;
23684;SDS011;12020;51.384;6.908;2023-06-10T02:40:45;9.47;;;8.53;;
23684;SDS011;12020;51.384;6.908;2023-06-10T02:43:11;9.40;;;8.53;;
23684;SDS011;12020;51.384;6.908;2023-06-10T02:45:37;9.07;;;8.17;;
23684;SDS011;12020;51.384;6.908;2023-06-10T02:48:02;9.60;;;8.80;;
23684;SDS011;12020;51.384;6.908;2023-06-10T02:50:28;9.60;;;8.60;;
23684;SDS011;12020;51.384;6.908;2023-06-10T02:52:54;10.13;;;9.10;;
23684;SDS011;12020;51.384;6.908;2023-06-10T02:55:19;9.97;;;9.10;;
23684;SDS011;12020;51.384;6.908;2023-06-10T02:57:46;9.80;;;8.97;;
23684;SDS011;12020;51.384;6.908;2023-06-10T03:00:12;9.73;;;8.70;;
23684;SDS011;12020;51.384;6.908;2023-06-10T03:02:39;9.70;;;8.90;;
23684;SDS011;12020;51.384;6.908;2023-06-10T03:05:05;10.23;;;9.33;;
23684;SDS011;12020;51.384;6.908;2023-06-10T03:07:35;10.10;;;9.10;;
23684;SDS011;12020;51.384;6.908;2023-06-10T03:10:01;10.50;;;9.40;;
23684;SDS011;12020;51.384;6.908;2023-06-10T03:12:26;10.30;;;8.93;;
23684;SDS011;12020;51.384;6.908;2023-06-10T03:14:53;10.47;;;9.47;;
23684;SDS011;12020;51.384;6.908;2023-06-10T03:17:19;10.30;;;9.23;;
23684;SDS011;12020;51.384;6.908;2023-06-10T03:19:45;10.50;;;9.60;;
23684;SDS011;12020;51.384;6.908;2023-06-10T03:22:11;10.63;;;8.77;;
23684;SDS011;12020;51.384;6.908;2023-06-10T03:24:38;10.60;;;9.60;;
23684;SDS011;12020;51.384;6.908;2023-06-10T03:27:06;10.17;;;9.27;;
23684;SDS011;12020;51.384;6.908;2023-06-10T03:29:32;10.40;;;9.47;;
23684;SDS011;12020;51.384;6.908;2023-06-10T03:31:58;10.10;;;9.13;;
23684;SDS011;12020;51.384;6.908;2023-06-10T03:34:24;9.93;;;9.03;;
23684;SDS011;12020;51.384;6.908;2023-06-10T03:36:50;10.17;;;9.17;;
23684;SDS011;12020;51.384;6.908;2023-06-10T03:39:15;10.20;;;9.13;;
23684;SDS011;12020;51.384;6.908;2023-06-10T03:41:41;10.07;;;9.17;;
23684;SDS011;12020;51.384;6.908;2023-06-10T03:44:07;10.47;;;9.47;;
23684;SDS011;12020;51.384;6.908;2023-06-10T03:46:32;10.60;;;9.60;;
23684;SDS011;12020;51.384;6.908;2023-06-10T03:48:58;11.73;;;10.63;;
23684;SDS011;12020;51.384;6.908;2023-06-10T03:51:28;11.15;;;10.23;;
23684;SDS011;12020;51.384;6.908;2023-06-10T03:53:54;11.63;;;10.63;;
23684;SDS011;12020;51.384;6.908;2023-06-10T03:56:20;11.57;;;10.60;;
23684;SDS011;12020;51.384;6.908;2023-06-10T03:58:46;11.60;;;10.60;;
23684;SDS011;12020;51.384;6.908;2023-06-10T04:01:11;10.40;;;9.40;;
23684;SDS011;12020;51.384;6.908;2023-06-10T04:10:58;10.23;;;9.30;;
23684;SDS011;12020;51.384;6.908;2023-06-10T04:13:23;12.02;;;10.85;;
23684;SDS011;12020;51.384;6.908;2023-06-10T04:15:49;11.43;;;10.32;;
23684;SDS011;12020;51.384;6.908;2023-06-10T04:18:15;11.30;;;10.40;;
23684;SDS011;12020;51.384;6.908;2023-06-10T04:20:41;12.03;;;10.93;;
23684;SDS011;12020;51.384;6.908;2023-06-10T04:23:07;11.30;;;10.10;;
23684;SDS011;12020;51.384;6.908;2023-06-10T04:25:33;10.77;;;9.77;;
23684;SDS011;12020;51.384;6.908;2023-06-10T04:27:59;10.17;;;9.27;;
23684;SDS011;12020;51.384;6.908;2023-06-10T04:30:24;10.87;;;9.87;;
23684;SDS011;12020;51.384;6.908;2023-06-10T04:32:50;11.83;;;10.73;;
23684;SDS011;12020;51.384;6.908;2023-06-10T04:35:15;11.73;;;10.53;;
23684;SDS011;12020;51.384;6.908;2023-06-10T04:37:41;11.70;;;10.50;;
23684;SDS011;12020;51.384;6.908;2023-06-10T04:40:08;11.93;;;10.83;;
23684;SDS011;12020;51.384;6.908;2023-06-10T04:42:34;10.93;;;9.93;;
23684;SDS011;12020;51.384;6.908;2023-06-10T04:45:00;11.10;;;10.00;;
23684;SDS011;12020;51.384;6.908;2023-06-10T04:47:27;13.87;;;10.37;;
23684;SDS011;12020;51.384;6.908;2023-06-10T04:49:53;10.90;;;9.90;;
23684;SDS011;12020;51.384;6.908;2023-06-10T04:52:19;10.93;;;9.93;;
23684;SDS011;12020;51.384;6.908;2023-06-10T04:54:44;11.90;;;10.80;;
23684;SDS011;12020;51.384;6.908;2023-06-10T04:57:10;12.57;;;11.47;;
23684;SDS011;12020;51.384;6.908;2023-06-10T04:59:37;12.52;;;11.40;;
23684;SDS011;12020;51.384;6.908;2023-06-10T05:02:06;12.30;;;11.20;;
23684;SDS011;12020;51.384;6.908;2023-06-10T05:04:32;13.85;;;12.63;;
23684;SDS011;12020;51.384;6.908;2023-06-10T05:06:57;12.95;;;11.73;;
23684;SDS011;12020;51.384;6.908;2023-06-10T05:09:23;13.43;;;12.23;;
23684;SDS011;12020;51.384;6.908;2023-06-10T05:11:49;13.10;;;11.90;;
23684;SDS011;12020;51.384;6.908;2023-06-10T05:14:14;12.40;;;11.40;;
23684;SDS011;12020;51.384;6.908;2023-06-10T05:16:44;13.38;;;12.07;;
23684;SDS011;12020;51.384;6.908;2023-06-10T05:19:09;14.85;;;13.55;;
23684;SDS011;12020;51.384;6.908;2023-06-10T05:21:36;13.13;;;11.98;;
23684;SDS011;12020;51.384;6.908;2023-06-10T05:24:02;13.27;;;11.97;;
23684;SDS011;12020;51.384;6.908;2023-06-10T05:26:27;12.90;;;11.70;;
23684;SDS011;12020;51.384;6.908;2023-06-10T05:28:54;13.50;;;12.40;;
23684;SDS011;12020;51.384;6.908;2023-06-10T05:31:19;13.10;;;12.00;;
23684;SDS011;12020;51.384;6.908;2023-06-10T05:33:45;13.67;;;12.37;;
23684;SDS011;12020;51.384;6.908;2023-06-10T05:36:11;13.80;;;12.60;;
23684;SDS011;12020;51.384;6.908;2023-06-10T05:38:36;12.88;;;11.68;;
23684;SDS011;12020;51.384;6.908;2023-06-10T05:41:02;13.27;;;12.07;;
23684;SDS011;12020;51.384;6.908;2023-06-10T05:43:28;12.18;;;11.07;;
23684;SDS011;12020;51.384;6.908;2023-06-10T05:45:53;12.70;;;11.53;;
23684;SDS011;12020;51.384;6.908;2023-06-10T05:48:19;12.60;;;11.53;;
23684;SDS011;12020;51.384;6.908;2023-06-10T05:50:45;12.10;;;11.03;;
23684;SDS011;12020;51.384;6.908;2023-06-10T05:53:13;12.63;;;11.35;;
23684;SDS011;12020;51.384;6.908;2023-06-10T05:55:43;11.70;;;10.60;;
23684;SDS011;12020;51.384;6.908;2023-06-10T05:58:10;11.23;;;10.02;;
23684;SDS011;12020;51.384;6.908;2023-06-10T06:00:37;10.65;;;9.75;;
23684;SDS011;12020;51.384;6.908;2023-06-10T06:03:09;11.13;;;10.13;;
23684;SDS011;12020;51.384;6.908;2023-06-10T06:05:35;11.05;;;9.95;;
23684;SDS011;12020;51.384;6.908;2023-06-10T06:08:02;10.82;;;9.82;;
23684;SDS011;12020;51.384;6.908;2023-06-10T06:10:31;10.40;;;9.30;;
23684;SDS011;12020;51.384;6.908;2023-06-10T06:12:57;10.20;;;9.20;;
23684;SDS011;12020;51.384;6.908;2023-06-10T06:15:23;9.83;;;9.03;;
23684;SDS011;12020;51.384;6.908;2023-06-10T06:17:48;10.10;;;9.13;;
23684;SDS011;12020;51.384;6.908;2023-06-10T06:20:17;10.00;;;9.07;;
23684;SDS011;12020;51.384;6.908;2023-06-10T06:22:46;9.80;;;8.90;;
23684;SDS011;12020;51.384;6.908;2023-06-10T06:25:12;9.90;;;9.00;;
23684;SDS011;12020;51.384;6.908;2023-06-10T06:27:38;9.93;;;9.03;;
23684;SDS011;12020;51.384;6.908;2023-06-10T06:30:05;9.67;;;8.80;;
23684;SDS011;12020;51.384;6.908;2023-06-10T06:32:32;9.65;;;8.65;;
23684;SDS011;12020;51.384;6.908;2023-06-10T06:34:57;9.27;;;8.48;;
23684;SDS011;12020;51.384;6.908;2023-06-10T06:37:24;9.02;;;8.23;;
23684;SDS011;12020;51.384;6.908;2023-06-10T06:39:53;10.03;;;9.07;;
23684;SDS011;12020;51.384;6.908;2023-06-10T06:42:19;9.32;;;8.43;;
23684;SDS011;12020;51.384;6.908;2023-06-10T06:44:46;9.10;;;8.30;;
23684;SDS011;12020;51.384;6.908;2023-06-10T06:47:12;9.00;;;8.10;;
23684;SDS011;12020;51.384;6.908;2023-06-10T06:49:38;8.85;;;7.93;;
23684;SDS011;12020;51.384;6.908;2023-06-10T06:52:04;9.25;;;8.30;;
23684;SDS011;12020;51.384;6.908;2023-06-10T06:54:30;8.57;;;7.70;;
23684;SDS011;12020;51.384;6.908;2023-06-10T06:56:55;8.60;;;7.70;;
23684;SDS011;12020;51.384;6.908;2023-06-10T06:59:21;8.27;;;7.55;;
23684;SDS011;12020;51.384;6.908;2023-06-10T07:01:47;8.18;;;7.38;;
23684;SDS011;12020;51.384;6.908;2023-06-10T07:04:15;8.07;;;7.28;;
23684;SDS011;12020;51.384;6.908;2023-06-10T07:06:41;8.40;;;7.22;;
23684;SDS011;12020;51.384;6.908;2023-06-10T07:09:09;8.23;;;7.40;;
23684;SDS011;12020;51.384;6.908;2023-06-10T07:11:35;8.73;;;7.50;;
23684;SDS011;12020;51.384;6.908;2023-06-10T07:14:01;7.90;;;7.20;;
23684;SDS011;12020;51.384;6.908;2023-06-10T07:16:27;7.40;;;6.70;;
23684;SDS011;12020;51.384;6.908;2023-06-10T07:18:52;8.17;;;7.20;;
23684;SDS011;12020;51.384;6.908;2023-06-10T07:21:18;7.68;;;6.88;;
23684;SDS011;12020;51.384;6.908;2023-06-10T07:23:45;7.90;;;6.72;;
23684;SDS011;12020;51.384;6.908;2023-06-10T07:26:11;7.70;;;6.90;;
23684;SDS011;12020;51.384;6.908;2023-06-10T07:28:38;7.57;;;6.87;;
23684;SDS011;12020;51.384;6.908;2023-06-10T07:31:08;7.50;;;6.75;;
23684;SDS011;12020;51.384;6.908;2023-06-10T07:33:34;7.50;;;6.63;;
23684;SDS011;12020;51.384;6.908;2023-06-10T07:36:00;9.30;;;6.78;;
23684;SDS011;12020;51.384;6.908;2023-06-10T07:38:25;7.07;;;6.37;;
23684;SDS011;12020;51.384;6.908;2023-06-10T07:40:51;7.10;;;6.43;;
23684;SDS011;12020;51.384;6.908;2023-06-10T07:43:17;6.53;;;5.93;;
23684;SDS011;12020;51.384;6.908;2023-06-10T07:45:44;7.05;;;6.40;;
23684;SDS011;12020;51.384;6.908;2023-06-10T07:48:10;8.38;;;6.47;;
23684;SDS011;12020;51.384;6.908;2023-06-10T07:50:36;6.88;;;6.28;;
23684;SDS011;12020;51.384;6.908;2023-06-10T07:53:03;7.10;;;6.40;;
23684;SDS011;12020;51.384;6.908;2023-06-10T07:55:28;7.45;;;6.18;;
23684;SDS011;12020;51.384;6.908;2023-06-10T07:57:54;7.95;;;6.10;;
23684;SDS011;12020;51.384;6.908;2023-06-10T08:00:20;7.87;;;6.07;;
23684;SDS011;12020;51.384;6.908;2023-06-10T08:02:49;6.38;;;5.78;;
23684;SDS011;12020;51.384;6.908;2023-06-10T08:05:15;6.95;;;6.25;;
23684;SDS011;12020;51.384;6.908;2023-06-10T08:07:41;6.85;;;6.25;;
23684;SDS011;12020;51.384;6.908;2023-06-10T08:10:07;6.43;;;5.83;;
23684;SDS011;12020;51.384;6.908;2023-06-10T08:12:33;6.70;;;5.10;;
23684;SDS011;12020;51.384;6.908;2023-06-10T08:14:59;6.38;;;5.72;;
23684;SDS011;12020;51.384;6.908;2023-06-10T08:17:25;6.63;;;6.03;;
23684;SDS011;12020;51.384;6.908;2023-06-10T08:19:51;6.87;;;6.00;;
23684;SDS011;12020;51.384;6.908;2023-06-10T08:22:17;6.70;;;5.93;;
23684;SDS011;12020;51.384;6.908;2023-06-10T08:24:43;8.18;;;5.68;;
23684;SDS011;12020;51.384;6.908;2023-06-10T08:27:08;6.60;;;6.00;;
23684;SDS011;12020;51.384;6.908;2023-06-10T08:29:35;6.67;;;6.00;;
23684;SDS011;12020;51.384;6.908;2023-06-10T08:32:01;7.57;;;6.03;;
23684;SDS011;12020;51.384;6.908;2023-06-10T08:34:27;6.28;;;5.65;;
23684;SDS011;12020;51.384;6.908;2023-06-10T08:36:52;6.80;;;5.78;;
23684;SDS011;12020;51.384;6.908;2023-06-10T08:39:20;6.13;;;5.53;;
23684;SDS011;12020;51.384;6.908;2023-06-10T18:26:51;6.40;;;5.17;;
23684;SDS011;12020;51.384;6.908;2023-06-10T18:29:17;6.17;;;5.07;;
23684;SDS011;12020;51.384;6.908;2023-06-10T18:31:43;6.30;;;5.27;;
23684;SDS011;12020;51.384;6.908;2023-06-10T18:34:08;5.47;;;4.97;;
23684;SDS011;12020;51.384;6.908;2023-06-10T18:36:34;6.80;;;5.20;;
23684;SDS011;12020;51.384;6.908;2023-06-10T18:39:01;6.50;;;5.10;;
23684;SDS011;12020;51.384;6.908;2023-06-10T18:41:26;5.87;;;5.27;;
23684;SDS011;12020;51.384;6.908;2023-06-10T18:43:52;6.33;;;5.63;;
23684;SDS011;12020;51.384;6.908;2023-06-10T18:46:20;6.00;;;5.37;;
23684;SDS011;12020;51.384;6.908;2023-06-10T18:48:46;7.47;;;5.57;;
23684;SDS011;12020;51.384;6.908;2023-06-10T18:51:14;6.27;;;5.60;;
23684;SDS011;12020;51.384;6.908;2023-06-10T18:53:39;5.83;;;5.30;;
23684;SDS011;12020;51.384;6.908;2023-06-10T18:56:05;6.77;;;6.07;;
23684;SDS011;12020;51.384;6.908;2023-06-10T18:58:31;6.13;;;5.53;;
23684;SDS011;12020;51.384;6.908;2023-06-10T19:01:01;6.87;;;5.50;;
23684;SDS011;12020;51.384;6.908;2023-06-10T19:03:27;5.97;;;5.47;;
23684;SDS011;12020;51.384;6.908;2023-06-10T19:05:56;6.40;;;5.30;;
23684;SDS011;12020;51.384;6.908;2023-06-10T19:08:25;6.20;;;5.67;;
23684;SDS011;12020;51.384;6.908;2023-06-10T19:10:52;5.83;;;5.33;;
23684;SDS011;12020;51.384;6.908;2023-06-10T19:13:18;7.07;;;5.83;;
23684;SDS011;12020;51.384;6.908;2023-06-10T19:15:43;6.13;;;5.63;;
23684;SDS011;12020;51.384;6.908;2023-06-10T19:18:09;6.80;;;6.20;;
23684;SDS011;12020;51.384;6.908;2023-06-10T19:20:35;6.63;;;5.77;;
23684;SDS011;12020;51.384;6.908;2023-06-10T19:23:01;8.23;;;6.03;;
23684;SDS011;12020;51.384;6.908;2023-06-10T19:25:28;6.30;;;5.70;;
23684;SDS011;12020;51.384;6.908;2023-06-10T19:27:53;6.67;;;6.07;;
23684;SDS011;12020;51.384;6.908;2023-06-10T19:30:19;6.07;;;5.20;;
23684;SDS011;12020;51.384;6.908;2023-06-10T19:32:45;6.57;;;5.80;;
23684;SDS011;12020;51.384;6.908;2023-06-10T19:35:10;6.87;;;6.07;;
23684;SDS011;12020;51.384;6.908;2023-06-10T19:37:36;9.57;;;5.97;;
23684;SDS011;12020;51.384;6.908;2023-06-10T19:40:04;6.40;;;5.60;;
23684;SDS011;12020;51.384;6.908;2023-06-10T19:42:30;7.67;;;5.83;;
23684;SDS011;12020;51.384;6.908;2023-06-10T19:44:57;6.70;;;5.37;;
23684;SDS011;12020;51.384;6.908;2023-06-10T19:47:23;6.03;;;5.43;;
23684;SDS011;12020;51.384;6.908;2023-06-10T19:49:48;6.50;;;5.90;;
23684;SDS011;12020;51.384;6.908;2023-06-10T19:52:14;5.90;;;5.40;;
23684;SDS011;12020;51.384;6.908;2023-06-10T19:54:41;7.87;;;6.03;;
23684;SDS011;12020;51.384;6.908;2023-06-10T19:57:07;6.87;;;5.97;;
23684;SDS011;12020;51.384;6.908;2023-06-10T19:59:33;6.03;;;5.43;;
23684;SDS011;12020;51.384;6.908;2023-06-10T20:01:58;6.33;;;5.70;;
23684;SDS011;12020;51.384;6.908;2023-06-10T20:04:24;5.73;;;5.23;;
23684;SDS011;12020;51.384;6.908;2023-06-10T20:06:49;6.97;;;5.60;;
23684;SDS011;12020;51.384;6.908;2023-06-10T20:09:15;6.30;;;5.70;;
23684;SDS011;12020;51.384;6.908;2023-06-10T20:11:41;6.00;;;5.37;;
23684;SDS011;12020;51.384;6.908;2023-06-10T20:14:07;6.23;;;5.63;;
23684;SDS011;12020;51.384;6.908;2023-06-10T20:16:32;8.03;;;5.97;;
23684;SDS011;12020;51.384;6.908;2023-06-10T20:19:01;5.90;;;5.30;;
23684;SDS011;12020;51.384;6.908;2023-06-10T20:21:28;6.50;;;5.90;;
23684;SDS011;12020;51.384;6.908;2023-06-10T20:23:53;5.87;;;5.37;;
23684;SDS011;12020;51.384;6.908;2023-06-10T20:26:19;5.97;;;5.47;;
23684;SDS011;12020;51.384;6.908;2023-06-10T20:28:45;7.00;;;5.53;;
23684;SDS011;12020;51.384;6.908;2023-06-10T20:31:11;7.07;;;5.67;;
23684;SDS011;12020;51.384;6.908;2023-06-10T20:33:37;5.90;;;5.37;;
23684;SDS011;12020;51.384;6.908;2023-06-10T20:36:02;6.67;;;6.03;;
23684;SDS011;12020;51.384;6.908;2023-06-10T20:38:28;7.57;;;5.87;;
23684;SDS011;12020;51.384;6.908;2023-06-10T20:40:54;6.70;;;5.73;;
23684;SDS011;12020;51.384;6.908;2023-06-10T20:43:21;6.13;;;5.53;;
23684;SDS011;12020;51.384;6.908;2023-06-10T20:45:47;7.37;;;6.40;;
23684;SDS011;12020;51.384;6.908;2023-06-10T20:48:13;6.67;;;5.77;;
23684;SDS011;12020;51.384;6.908;2023-06-10T20:50:40;6.83;;;6.13;;
23684;SDS011;12020;51.384;6.908;2023-06-10T20:53:06;6.23;;;5.63;;
23684;SDS011;12020;51.384;6.908;2023-06-10T20:55:31;6.23;;;5.63;;
23684;SDS011;12020;51.384;6.908;2023-06-10T20:57:57;6.27;;;5.77;;
23684;SDS011;12020;51.384;6.908;2023-06-10T21:00:24;6.83;;;6.03;;
23684;SDS011;12020;51.384;6.908;2023-06-10T21:02:50;6.90;;;5.90;;
23684;SDS011;12020;51.384;6.908;2023-06-10T21:05:16;6.63;;;6.00;;
23684;SDS011;12020;51.384;6.908;2023-06-10T21:07:42;6.40;;;5.80;;
23684;SDS011;12020;51.384;6.908;2023-06-10T21:10:10;6.63;;;5.83;;
23684;SDS011;12020;51.384;6.908;2023-06-10T21:12:36;7.03;;;5.87;;
23684;SDS011;12020;51.384;6.908;2023-06-10T21:15:02;6.60;;;6.00;;
23684;SDS011;12020;51.384;6.908;2023-06-10T21:17:29;7.30;;;6.60;;
23684;SDS011;12020;51.384;6.908;2023-06-10T21:19:55;6.90;;;6.23;;
23684;SDS011;12020;51.384;6.908;2023-06-10T21:22:21;6.67;;;6.07;;
23684;SDS011;12020;51.384;6.908;2023-06-10T21:24:47;7.00;;;6.33;;
23684;SDS011;12020;51.384;6.908;2023-06-10T21:27:12;7.32;;;6.63;;
23684;SDS011;12020;51.384;6.908;2023-06-10T21:29:40;7.30;;;6.60;;
23684;SDS011;12020;51.384;6.908;2023-06-10T21:32:07;7.28;;;6.45;;
23684;SDS011;12020;51.384;6.908;2023-06-10T21:34:35;7.10;;;6.50;;
23684;SDS011;12020;51.384;6.908;2023-06-10T21:37:00;6.75;;;6.10;;
23684;SDS011;12020;51.384;6.908;2023-06-10T21:39:26;6.85;;;6.25;;
23684;SDS011;12020;51.384;6.908;2023-06-10T21:41:52;7.10;;;6.40;;
23684;SDS011;12020;51.384;6.908;2023-06-10T21:44:17;7.27;;;6.57;;
23684;SDS011;12020;51.384;6.908;2023-06-10T21:46:43;7.57;;;6.88;;
23684;SDS011;12020;51.384;6.908;2023-06-10T21:49:09;7.38;;;6.70;;
23684;SDS011;12020;51.384;6.908;2023-06-10T21:51:35;7.32;;;6.63;;
23684;SDS011;12020;51.384;6.908;2023-06-10T21:54:00;7.67;;;6.40;;
23684;SDS011;12020;51.384;6.908;2023-06-10T21:56:26;7.70;;;7.03;;
23684;SDS011;12020;51.384;6.908;2023-06-10T21:58:56;7.20;;;6.60;;
23684;SDS011;12020;51.384;6.908;2023-06-10T22:01:22;7.55;;;6.80;;
23684;SDS011;12020;51.384;6.908;2023-06-10T22:03:48;7.63;;;6.93;;
23684;SDS011;12020;51.384;6.908;2023-06-10T22:06:14;7.20;;;6.60;;
23684;SDS011;12020;51.384;6.908;2023-06-10T22:08:40;8.52;;;6.97;;
23684;SDS011;12020;51.384;6.908;2023-06-10T22:11:06;7.78;;;7.07;;
23684;SDS011;12020;51.384;6.908;2023-06-10T22:13:32;7.63;;;6.83;;
23684;SDS011;12020;51.384;6.908;2023-06-10T22:15:57;7.17;;;6.53;;
23684;SDS011;12020;51.384;6.908;2023-06-10T22:18:23;7.47;;;6.68;;
23684;SDS011;12020;51.384;6.908;2023-06-10T22:20:48;7.60;;;6.93;;
23684;SDS011;12020;51.384;6.908;2023-06-10T22:23:19;7.60;;;6.87;;
23684;SDS011;12020;51.384;6.908;2023-06-10T22:25:45;7.70;;;6.97;;
23684;SDS011;12020;51.384;6.908;2023-06-10T22:28:11;7.60;;;6.90;;
23684;SDS011;12020;51.384;6.908;2023-06-10T22:30:36;7.68;;;6.97;;
23684;SDS011;12020;51.384;6.908;2023-06-10T22:33:02;7.77;;;6.97;;
23684;SDS011;12020;51.384;6.908;2023-06-10T22:35:27;7.33;;;6.63;;
23684;SDS011;12020;51.384;6.908;2023-06-10T22:37:53;7.60;;;6.90;;
23684;SDS011;12020;51.384;6.908;2023-06-10T22:40:19;8.05;;;7.22;;
23684;SDS011;12020;51.384;6.908;2023-06-10T22:42:45;7.90;;;7.20;;
23684;SDS011;12020;51.384;6.908;2023-06-10T22:45:10;7.50;;;6.80;;
23684;SDS011;12020;51.384;6.908;2023-06-10T22:47:36;8.18;;;7.38;;
23684;SDS011;12020;51.384;6.908;2023-06-10T22:50:02;7.88;;;7.10;;
23684;SDS011;12020;51.384;6.908;2023-06-10T22:52:28;7.95;;;7.15;;
23684;SDS011;12020;51.384;6.908;2023-06-10T22:54:54;7.50;;;6.80;;
23684;SDS011;12020;51.384;6.908;2023-06-10T22:57:20;8.13;;;7.43;;
23684;SDS011;12020;51.384;6.908;2023-06-10T22:59:45;7.97;;;7.28;;
23684;SDS011;12020;51.384;6.908;2023-06-10T23:02:11;8.13;;;7.32;;
23684;SDS011;12020;51.384;6.908;2023-06-10T23:04:37;7.87;;;7.17;;
23684;SDS011;12020;51.384;6.908;2023-06-10T23:07:03;8.00;;;7.30;;
23684;SDS011;12020;51.384;6.908;2023-06-10T23:09:29;8.03;;;7.33;;
23684;SDS011;12020;51.384;6.908;2023-06-10T23:11:54;7.90;;;7.20;;
23684;SDS011;12020;51.384;6.908;2023-06-10T23:14:20;7.93;;;7.22;;
23684;SDS011;12020;51.384;6.908;2023-06-10T23:16:46;8.05;;;7.20;;
23684;SDS011;12020;51.384;6.908;2023-06-10T23:19:12;7.90;;;7.20;;
23684;SDS011;12020;51.384;6.908;2023-06-10T23:21:43;8.77;;;7.40;;
23684;SDS011;12020;51.384;6.908;2023-06-10T23:24:19;7.90;;;7.20;;
23684;SDS011;12020;51.384;6.908;2023-06-10T23:26:46;8.48;;;7.70;;
23684;SDS011;12020;51.384;6.908;2023-06-10T23:29:12;8.00;;;7.32;;
23684;SDS011;12020;51.384;6.908;2023-06-10T23:31:38;7.57;;;6.97;;
23684;SDS011;12020;51.384;6.908;2023-06-10T23:34:04;7.83;;;7.13;;
23684;SDS011;12020;51.384;6.908;2023-06-10T23:36:29;7.83;;;7.17;;
23684;SDS011;12020;51.384;6.908;2023-06-10T23:38:56;8.02;;;7.32;;
23684;SDS011;12020;51.384;6.908;2023-06-10T23:41:23;7.95;;;7.25;;
23684;SDS011;12020;51.384;6.908;2023-06-10T23:43:49;8.38;;;7.63;;
23684;SDS011;12020;51.384;6.908;2023-06-10T23:46:15;7.83;;;7.23;;
23684;SDS011;12020;51.384;6.908;2023-06-10T23:48:41;8.37;;;7.67;;
23684;SDS011;12020;51.384;6.908;2023-06-10T23:51:06;8.30;;;7.50;;
23684;SDS011;12020;51.384;6.908;2023-06-10T23:53:32;8.00;;;7.30;;
23684;SDS011;12020;51.384;6.908;2023-06-10T23:55:58;8.05;;;7.35;;
23684;SDS011;12020;51.384;6.908;2023-06-10T23:58:24;8.33;;;7.53;;
